createdAt,value
2023-02-26T00:00:12.488Z,1.55
2023-02-26T00:02:16.308Z,2.03
2023-02-26T00:04:19.722Z,1.10
2023-02-26T00:06:24.378Z,1.20
2023-02-26T00:08:28.379Z,1.35
2023-02-26T00:10:32.118Z,1.50
2023-02-26T00:12:37.127Z,1.30
2023-02-26T00:14:41.939Z,1.13
2023-02-26T00:16:52.031Z,1.38
2023-02-26T00:18:56.168Z,1.05
2023-02-26T00:21:00.239Z,1.02
2023-02-26T00:23:04.703Z,0.60
2023-02-26T00:25:09.383Z,0.90
2023-02-26T00:27:13.598Z,0.60
2023-02-26T00:29:17.815Z,1.17
2023-02-26T00:31:25.084Z,1.23
2023-02-26T00:33:31.068Z,1.20
2023-02-26T00:35:36.050Z,0.88
2023-02-26T00:37:59.721Z,1.00
2023-02-26T00:40:16.766Z,0.50
2023-02-26T00:42:21.057Z,0.95
2023-02-26T00:44:25.102Z,0.47
2023-02-26T00:46:39.993Z,1.20
2023-02-26T00:48:55.563Z,0.98
2023-02-26T00:51:08.203Z,1.23
2023-02-26T00:53:19.117Z,0.60
2023-02-26T00:55:22.978Z,0.95
2023-02-26T00:57:26.866Z,0.90
2023-02-26T00:59:30.540Z,1.00
2023-02-26T01:01:34.422Z,1.00
2023-02-26T01:03:39.009Z,0.80
2023-02-26T01:05:44.852Z,1.10
2023-02-26T01:07:55.556Z,0.93
2023-02-26T01:09:59.419Z,0.90
2023-02-26T01:12:07.528Z,1.05
2023-02-26T01:14:11.393Z,1.25
2023-02-26T01:16:21.890Z,1.52
2023-02-26T01:18:30.247Z,1.00
2023-02-26T01:20:41.076Z,1.15
2023-02-26T01:22:52.092Z,1.75
2023-02-26T01:25:02.968Z,1.15
2023-02-26T01:27:06.806Z,1.27
2023-02-26T01:29:10.973Z,1.00
2023-02-26T01:31:36.150Z,0.90
2023-02-26T01:33:45.953Z,1.55
2023-02-26T01:35:51.734Z,0.93
2023-02-26T01:38:03.162Z,0.80
2023-02-26T01:40:37.569Z,1.25
2023-02-26T01:42:47.214Z,0.93
2023-02-26T01:45:00.863Z,1.00
2023-02-26T01:47:15.905Z,1.60
2023-02-26T01:49:21.955Z,1.27
2023-02-26T01:51:46.648Z,1.02
2023-02-26T01:53:51.317Z,1.42
2023-02-26T01:55:58.695Z,1.20
2023-02-26T01:58:03.830Z,0.93
2023-02-26T02:00:08.866Z,1.15
2023-02-26T02:02:21.926Z,1.00
2023-02-26T02:04:26.884Z,1.08
2023-02-26T02:06:32.167Z,1.02
2023-02-26T02:08:37.449Z,1.17
2023-02-26T02:10:45.538Z,0.90
2023-02-26T02:12:57.445Z,0.93
2023-02-26T02:15:11.249Z,0.98
2023-02-26T02:17:20.866Z,0.95
2023-02-26T02:19:44.735Z,0.95
2023-02-26T02:22:03.573Z,1.20
2023-02-26T02:24:13.300Z,1.75
2023-02-26T02:26:47.610Z,1.02
2023-02-26T02:29:09.930Z,1.33
2023-02-26T02:31:19.028Z,0.98
2023-02-26T02:33:28.819Z,0.88
2023-02-26T02:35:39.947Z,0.73
2023-02-26T02:37:47.812Z,0.90
2023-02-26T02:39:55.814Z,0.98
2023-02-26T02:42:03.636Z,0.85
2023-02-26T02:44:13.770Z,0.85
2023-02-26T02:46:22.498Z,0.90
2023-02-26T02:48:32.530Z,0.95
2023-02-26T02:50:40.174Z,1.35
2023-02-26T02:52:49.890Z,0.60
2023-02-26T02:54:57.761Z,1.08
2023-02-26T02:57:05.828Z,0.63
2023-02-26T02:59:17.753Z,0.80
2023-02-26T03:01:26.736Z,0.90
2023-02-26T03:03:36.781Z,1.00
2023-02-26T03:05:40.073Z,0.98
2023-02-26T03:07:47.996Z,1.52
2023-02-26T03:09:51.626Z,0.95
2023-02-26T03:11:54.898Z,1.08
2023-02-26T03:13:58.946Z,0.63
2023-02-26T03:16:26.226Z,1.88
2023-02-26T03:18:42.973Z,0.90
2023-02-26T03:20:57.363Z,0.93
2023-02-26T03:23:08.634Z,1.02
2023-02-26T03:27:26.592Z,1.10
2023-02-26T03:29:39.523Z,0.82
2023-02-26T03:31:54.190Z,0.80
2023-02-26T03:34:03.211Z,0.40
2023-02-26T03:36:13.313Z,1.05
2023-02-26T03:38:38.726Z,0.82
2023-02-26T03:40:47.350Z,0.75
2023-02-26T03:42:56.781Z,0.93
2023-02-26T03:45:07.013Z,0.80
2023-02-26T03:47:16.011Z,1.00
2023-02-26T03:49:28.361Z,0.73
2023-02-26T03:51:32.523Z,0.73
2023-02-26T03:54:10.417Z,1.35
2023-02-26T03:56:21.928Z,1.00
2023-02-26T03:58:31.941Z,0.70
2023-02-26T04:01:04.476Z,1.05
2023-02-26T04:03:16.019Z,0.80
2023-02-26T04:05:25.043Z,0.60
2023-02-26T04:07:30.004Z,0.88
2023-02-26T04:09:33.717Z,0.90
2023-02-26T04:11:39.090Z,0.75
2023-02-26T04:13:42.624Z,0.80
2023-02-26T04:15:46.203Z,0.98
2023-02-26T04:17:50.634Z,1.27
2023-02-26T04:19:54.512Z,0.80
2023-02-26T04:21:59.672Z,0.73
2023-02-26T04:26:07.004Z,1.25
2023-02-26T04:28:12.677Z,1.88
2023-02-26T04:30:16.750Z,0.75
2023-02-26T04:32:20.549Z,1.67
2023-02-26T04:34:24.455Z,1.10
2023-02-26T04:36:29.906Z,1.35
2023-02-26T04:38:36.903Z,1.20
2023-02-26T04:40:41.434Z,1.02
2023-02-26T04:42:48.738Z,1.10
2023-02-26T04:44:57.937Z,0.98
2023-02-26T04:47:02.839Z,1.10
2023-02-26T04:51:12.372Z,1.30
2023-02-26T04:53:16.010Z,0.80
2023-02-26T04:55:21.212Z,1.00
2023-02-26T04:57:24.881Z,1.17
2023-02-26T04:59:28.787Z,0.85
2023-02-26T05:01:34.298Z,1.10
2023-02-26T05:03:38.097Z,1.08
2023-02-26T05:05:41.747Z,0.60
2023-02-26T05:07:45.349Z,1.10
2023-02-26T05:09:48.874Z,1.35
2023-02-26T05:11:53.974Z,1.08
2023-02-26T05:16:00.852Z,0.95
2023-02-26T05:18:05.642Z,1.23
2023-02-26T05:20:11.350Z,1.30
2023-02-26T05:22:15.041Z,0.90
2023-02-26T05:24:18.670Z,1.10
2023-02-26T05:26:22.565Z,1.10
2023-02-26T05:28:28.600Z,0.90
2023-02-26T05:30:32.269Z,0.63
2023-02-26T05:32:35.933Z,0.70
2023-02-26T05:34:39.408Z,0.88
2023-02-26T05:36:42.922Z,0.95
2023-02-26T05:38:46.493Z,0.90
2023-02-26T05:40:50.127Z,0.90
2023-02-26T05:42:53.708Z,1.40
2023-02-26T05:44:59.116Z,1.13
2023-02-26T05:47:02.943Z,1.23
2023-02-26T05:49:06.616Z,1.10
2023-02-26T05:51:10.336Z,1.17
2023-02-26T05:53:13.807Z,1.10
2023-02-26T05:55:18.360Z,0.80
2023-02-26T05:57:21.982Z,1.42
2023-02-26T05:59:25.959Z,1.40
2023-02-26T06:01:31.231Z,0.90
2023-02-26T06:03:35.063Z,1.15
2023-02-26T06:05:38.631Z,0.90
2023-02-26T06:07:42.255Z,1.10
2023-02-26T06:09:46.316Z,0.88
2023-02-26T06:11:50.227Z,1.10
2023-02-26T06:13:53.777Z,1.02
2023-02-26T06:15:57.338Z,0.90
2023-02-26T06:18:02.369Z,1.13
2023-02-26T06:20:06.663Z,1.15
2023-02-26T06:22:10.105Z,0.80
2023-02-26T06:24:13.686Z,0.55
2023-02-26T06:26:17.237Z,1.23
2023-02-26T06:28:21.145Z,1.10
2023-02-26T06:30:25.217Z,1.05
2023-02-26T06:32:30.649Z,1.20
2023-02-26T06:34:36.018Z,1.00
2023-02-26T06:38:45.254Z,1.92
2023-02-26T06:40:49.580Z,0.80
2023-02-26T06:42:53.381Z,1.83
2023-02-26T06:44:57.663Z,0.82
2023-02-26T06:47:01.263Z,0.95
2023-02-26T06:49:04.876Z,1.00
2023-02-26T06:51:10.449Z,0.98
2023-02-26T06:53:14.210Z,1.45
2023-02-26T06:55:18.237Z,0.93
2023-02-26T06:57:21.862Z,1.65
2023-02-26T06:59:25.591Z,1.02
2023-02-26T07:01:29.253Z,1.50
2023-02-26T07:03:32.936Z,0.93
2023-02-26T07:05:36.509Z,1.10
2023-02-26T07:07:41.568Z,1.63
2023-02-26T07:09:46.188Z,1.02
2023-02-26T07:11:50.005Z,0.80
2023-02-26T07:13:53.822Z,0.93
2023-02-26T07:15:57.415Z,1.10
2023-02-26T07:18:01.438Z,1.25
2023-02-26T07:20:10.338Z,0.90
2023-02-26T07:22:14.061Z,1.15
2023-02-26T07:24:19.363Z,1.10
2023-02-26T07:26:23.185Z,1.02
2023-02-26T07:28:27.013Z,1.75
2023-02-26T07:30:31.355Z,1.08
2023-02-26T07:32:35.425Z,1.10
2023-02-26T07:34:38.968Z,0.90
2023-02-26T07:36:42.679Z,0.77
2023-02-26T07:38:46.236Z,0.90
2023-02-26T07:40:51.310Z,1.10
2023-02-26T07:42:54.986Z,0.93
2023-02-26T07:44:59.437Z,0.75
2023-02-26T07:47:02.983Z,1.05
2023-02-26T07:49:06.857Z,1.25
2023-02-26T07:51:11.331Z,1.10
2023-02-26T07:53:15.444Z,1.20
2023-02-26T07:55:19.132Z,0.80
2023-02-26T07:57:24.148Z,1.10
2023-02-26T07:59:27.837Z,0.98
2023-02-26T08:01:31.625Z,1.25
2023-02-26T08:03:35.112Z,0.68
2023-02-26T08:05:38.588Z,0.80
2023-02-26T08:07:42.101Z,1.13
2023-02-26T08:09:45.698Z,1.52
2023-02-26T08:11:49.817Z,0.75
2023-02-26T08:13:55.383Z,1.00
2023-02-26T08:15:58.965Z,1.02
2023-02-26T08:18:02.603Z,0.85
2023-02-26T08:20:06.966Z,1.15
2023-02-26T08:22:10.469Z,1.08
2023-02-26T08:24:14.486Z,1.15
2023-02-26T08:26:18.209Z,1.63
2023-02-26T08:28:22.306Z,0.88
2023-02-26T08:30:28.489Z,1.30
2023-02-26T08:32:32.198Z,1.40
2023-02-26T08:34:35.784Z,1.00
2023-02-26T08:36:39.546Z,1.00
2023-02-26T08:38:43.102Z,0.90
2023-02-26T08:40:47.010Z,0.95
2023-02-26T08:42:50.575Z,1.63
2023-02-26T08:44:54.635Z,0.95
2023-02-26T08:47:00.304Z,1.40
2023-02-26T08:49:04.404Z,1.08
2023-02-26T08:51:08.352Z,1.13
2023-02-26T08:53:12.129Z,1.13
2023-02-26T08:55:15.677Z,1.42
2023-02-26T08:57:20.065Z,1.20
2023-02-26T08:59:23.972Z,1.60
2023-02-26T09:01:28.497Z,1.95
2023-02-26T09:03:34.303Z,2.30
2023-02-26T09:05:39.391Z,1.10
2023-02-26T09:07:44.127Z,1.20
2023-02-26T09:09:48.348Z,1.10
2023-02-26T09:11:52.586Z,1.08
2023-02-26T09:13:56.251Z,0.77
2023-02-26T09:16:00.635Z,1.40
2023-02-26T09:18:05.050Z,1.05
2023-02-26T09:20:12.382Z,1.23
2023-02-26T09:22:16.136Z,1.15
2023-02-26T09:24:20.228Z,0.93
2023-02-26T09:26:24.273Z,1.30
2023-02-26T09:28:28.216Z,1.33
2023-02-26T09:30:32.253Z,1.27
2023-02-26T09:32:36.009Z,1.05
2023-02-26T09:34:41.029Z,1.25
2023-02-26T09:36:47.156Z,2.88
2023-02-26T09:38:51.152Z,1.23
2023-02-26T09:40:59.029Z,1.25
2023-02-26T09:43:13.856Z,1.95
2023-02-26T09:45:29.048Z,1.38
2023-02-26T09:47:41.952Z,1.02
2023-02-26T09:49:55.712Z,0.82
2023-02-26T09:52:07.484Z,1.15
2023-02-26T09:54:19.664Z,1.38
2023-02-26T09:56:28.201Z,1.67
2023-02-26T09:58:34.146Z,1.05
2023-02-26T10:00:43.740Z,1.20
2023-02-26T10:02:57.038Z,1.48
2023-02-26T10:05:14.388Z,0.98
2023-02-26T10:07:30.750Z,1.52
2023-02-26T10:09:47.552Z,1.30
2023-02-26T10:11:57.953Z,1.00
2023-02-26T10:14:07.946Z,1.00
2023-02-26T10:16:14.638Z,1.55
2023-02-26T10:18:24.517Z,1.95
2023-02-26T10:20:36.816Z,1.23
2023-02-26T10:22:52.296Z,1.50
2023-02-26T10:25:04.012Z,1.25
2023-02-26T10:27:17.495Z,0.80
2023-02-26T10:29:35.238Z,1.10
2023-02-26T10:31:50.697Z,0.98
2023-02-26T10:34:03.509Z,2.00
2023-02-26T10:36:23.153Z,2.53
2023-02-26T10:38:33.024Z,0.82
2023-02-26T10:40:44.114Z,1.40
2023-02-26T10:42:52.232Z,0.85
2023-02-26T10:45:18.561Z,1.63
2023-02-26T10:47:31.155Z,1.20
2023-02-26T10:49:46.130Z,1.33
2023-02-26T10:51:53.013Z,2.00
2023-02-26T10:54:02.154Z,1.10
2023-02-26T10:56:12.019Z,1.40
2023-02-26T10:58:18.331Z,1.50
2023-02-26T11:00:23.969Z,1.52
2023-02-26T11:02:38.250Z,1.45
2023-02-26T11:04:42.481Z,1.50
2023-02-26T11:06:51.265Z,1.65
2023-02-26T11:08:59.262Z,1.30
2023-02-26T11:11:04.652Z,1.23
2023-02-26T11:13:08.519Z,1.10
2023-02-26T11:15:15.877Z,0.98
2023-02-26T11:17:22.558Z,1.20
2023-02-26T11:19:30.214Z,1.33
2023-02-26T11:21:39.683Z,1.45
2023-02-26T11:23:45.593Z,1.30
2023-02-26T11:25:55.993Z,1.60
2023-02-26T11:28:04.003Z,1.20
2023-02-26T11:30:17.019Z,1.48
2023-02-26T11:32:26.039Z,1.42
2023-02-26T11:34:32.495Z,1.92
2023-02-26T11:36:40.590Z,1.38
2023-02-26T11:38:47.444Z,1.48
2023-02-26T11:40:56.356Z,1.42
2023-02-26T11:43:03.676Z,1.10
2023-02-26T11:45:08.934Z,2.10
2023-02-26T11:47:16.367Z,1.08
2023-02-26T11:49:23.834Z,1.33
2023-02-26T11:51:29.875Z,1.27
2023-02-26T11:53:36.775Z,1.60
2023-02-26T11:55:45.888Z,1.40
2023-02-26T11:57:55.945Z,1.30
2023-02-26T12:00:00.731Z,1.40
2023-02-26T12:02:12.518Z,1.02
2023-02-26T12:04:20.608Z,1.40
2023-02-26T12:06:26.000Z,1.23
2023-02-26T12:08:38.570Z,1.02
2023-02-26T12:10:48.190Z,1.45
2023-02-26T12:13:09.965Z,2.20
2023-02-26T12:15:33.228Z,1.30
2023-02-26T12:17:56.529Z,1.25
2023-02-26T12:22:44.621Z,1.23
2023-02-26T12:25:10.954Z,1.50
2023-02-26T12:27:25.537Z,1.65
2023-02-26T12:29:44.257Z,1.60
2023-02-26T12:32:29.649Z,1.08
2023-02-26T12:35:12.686Z,1.55
2023-02-26T12:37:31.327Z,1.73
2023-02-26T12:39:49.616Z,1.90
2023-02-26T12:42:10.801Z,1.95
2023-02-26T12:44:27.431Z,1.30
2023-02-26T12:46:48.724Z,1.25
2023-02-26T12:49:07.737Z,1.45
2023-02-26T12:51:24.521Z,1.30
2023-02-26T12:54:05.514Z,1.50
2023-02-26T12:56:36.388Z,1.60
2023-02-26T12:58:58.902Z,2.58
2023-02-26T13:01:34.632Z,1.27
2023-02-26T13:04:07.895Z,2.40
2023-02-26T13:06:45.319Z,1.30
2023-02-26T13:09:02.256Z,2.03
2023-02-26T13:11:23.653Z,1.48
2023-02-26T13:13:50.091Z,1.30
2023-02-26T13:16:05.452Z,1.70
2023-02-26T13:18:20.549Z,0.85
2023-02-26T13:20:27.734Z,1.48
2023-02-26T13:22:37.512Z,1.20
2023-02-26T13:24:53.095Z,4.57
2023-02-26T13:27:05.869Z,2.95
2023-02-26T13:29:17.050Z,1.60
2023-02-26T13:31:27.547Z,1.40
2023-02-26T13:33:36.038Z,1.38
2023-02-26T13:35:46.438Z,1.98
2023-02-26T13:37:55.278Z,1.13
2023-02-26T13:40:27.945Z,1.75
2023-02-26T13:42:41.303Z,1.33
2023-02-26T13:44:56.844Z,1.65
2023-02-26T13:47:19.526Z,1.45
2023-02-26T13:49:31.843Z,1.10
2023-02-26T13:51:41.891Z,1.55
2023-02-26T13:53:54.670Z,1.83
2023-02-26T13:56:09.147Z,1.33
2023-02-26T13:58:31.297Z,1.63
2023-02-26T14:00:47.463Z,1.63
2023-02-26T14:02:57.281Z,1.52
2023-02-26T14:05:02.391Z,1.27
2023-02-26T14:07:14.623Z,1.10
2023-02-26T14:09:45.853Z,1.27
2023-02-26T14:12:02.062Z,1.15
2023-02-26T14:14:33.978Z,2.08
2023-02-26T14:16:40.980Z,1.48
2023-02-26T14:18:52.720Z,1.35
2023-02-26T14:21:38.957Z,1.15
2023-02-26T14:23:50.410Z,2.05
2023-02-26T14:25:55.331Z,1.50
2023-02-26T14:28:23.560Z,2.42
2023-02-26T14:30:35.421Z,1.60
2023-02-26T14:32:50.522Z,1.25
2023-02-26T14:34:57.955Z,1.13
2023-02-26T14:37:07.444Z,1.88
2023-02-26T14:39:26.271Z,2.00
2023-02-26T14:41:36.712Z,3.08
2023-02-26T14:43:43.095Z,1.88
2023-02-26T14:45:47.889Z,1.88
2023-02-26T14:47:53.281Z,2.15
2023-02-26T14:50:01.030Z,1.50
2023-02-26T14:52:26.652Z,1.27
2023-02-26T14:54:49.742Z,1.30
2023-02-26T14:57:03.551Z,2.13
2023-02-26T14:59:23.570Z,2.22
2023-02-26T15:01:45.906Z,1.60
2023-02-26T15:04:16.313Z,1.30
2023-02-26T15:06:46.101Z,1.50
2023-02-26T15:09:02.601Z,1.40
2023-02-26T15:11:28.599Z,1.73
2023-02-26T15:13:48.409Z,1.25
2023-02-26T15:15:57.222Z,2.00
2023-02-26T15:18:14.585Z,1.80
2023-02-26T15:22:47.003Z,1.85
2023-02-26T15:24:51.063Z,1.75
2023-02-26T15:27:00.375Z,2.13
2023-02-26T15:29:07.381Z,1.77
2023-02-26T15:31:14.349Z,1.73
2023-02-26T15:33:20.710Z,1.20
2023-02-26T15:35:25.509Z,2.50
2023-02-26T15:37:33.774Z,1.70
2023-02-26T15:39:37.440Z,2.05
2023-02-26T15:41:41.688Z,2.45
2023-02-26T15:43:52.309Z,1.15
2023-02-26T15:45:58.818Z,1.58
2023-02-26T15:48:06.664Z,1.70
2023-02-26T15:50:16.280Z,1.67
2023-02-26T15:52:23.789Z,1.83
2023-02-26T15:54:33.666Z,2.92
2023-02-26T15:56:41.877Z,4.10
2023-02-26T15:58:51.400Z,2.33
2023-02-26T16:00:58.889Z,2.88
2023-02-26T16:03:04.866Z,3.30
2023-02-26T16:05:10.771Z,2.25
2023-02-26T16:07:16.253Z,2.17
2023-02-26T16:09:27.042Z,2.63
2023-02-26T16:11:36.067Z,1.88
2023-02-26T16:13:43.628Z,1.00
2023-02-26T16:15:49.981Z,3.10
2023-02-26T16:17:57.757Z,2.72
2023-02-26T16:20:06.038Z,2.47
2023-02-26T16:22:18.812Z,3.00
2023-02-26T16:24:24.669Z,2.33
2023-02-26T16:26:34.625Z,1.60
2023-02-26T16:28:45.956Z,1.77
2023-02-26T16:33:00.433Z,1.70
2023-02-26T16:35:12.818Z,1.20
2023-02-26T16:37:24.947Z,1.55
2023-02-26T16:39:32.581Z,1.27
2023-02-26T16:41:39.919Z,1.38
2023-02-26T16:43:56.990Z,2.00
2023-02-26T16:46:04.890Z,1.75
2023-02-26T16:48:16.078Z,1.25
2023-02-26T16:52:28.527Z,2.15
2023-02-26T16:54:37.000Z,2.45
2023-02-26T16:56:44.161Z,2.40
2023-02-26T16:58:50.879Z,2.13
2023-02-26T17:01:01.991Z,1.75
2023-02-26T17:03:13.505Z,2.63
2023-02-26T17:05:25.147Z,2.42
2023-02-26T17:07:32.122Z,2.00
2023-02-26T17:09:38.939Z,1.73
2023-02-26T17:11:46.140Z,2.47
2023-02-26T17:14:04.453Z,2.22
2023-02-26T17:16:13.392Z,1.83
2023-02-26T17:18:19.145Z,1.92
2023-02-26T17:20:23.376Z,2.05
2023-02-26T17:22:30.365Z,2.20
2023-02-26T17:24:36.488Z,2.47
2023-02-26T17:26:40.185Z,2.83
2023-02-26T17:28:44.933Z,2.20
2023-02-26T17:30:48.663Z,1.80
2023-02-26T17:32:53.268Z,2.38
2023-02-26T17:34:59.793Z,1.98
2023-02-26T17:37:07.763Z,1.77
2023-02-26T17:39:14.090Z,1.92
2023-02-26T17:41:20.302Z,2.42
2023-02-26T17:43:24.214Z,2.00
2023-02-26T17:45:28.189Z,2.28
2023-02-26T17:47:31.730Z,2.25
2023-02-26T17:49:35.381Z,2.33
2023-02-26T17:51:40.563Z,2.80
2023-02-26T17:53:46.553Z,1.80
2023-02-26T17:55:53.569Z,1.95
2023-02-26T17:57:58.016Z,1.77
2023-02-26T18:00:01.907Z,2.13
2023-02-26T18:02:17.714Z,2.33
2023-02-26T18:04:21.557Z,2.50
2023-02-26T18:06:27.119Z,3.28
2023-02-26T18:08:34.968Z,3.28
2023-02-26T18:10:39.420Z,3.03
2023-02-26T18:12:43.950Z,2.58
2023-02-26T18:14:48.253Z,2.75
2023-02-26T18:16:52.412Z,2.35
2023-02-26T18:18:56.475Z,2.47
2023-02-26T18:21:00.478Z,3.30
2023-02-26T18:23:05.894Z,3.63
2023-02-26T18:25:14.422Z,2.30
2023-02-26T18:27:19.885Z,2.63
2023-02-26T18:29:23.698Z,3.30
2023-02-26T18:31:34.928Z,3.53
2023-02-26T18:33:41.515Z,3.72
2023-02-26T18:35:47.493Z,3.80
2023-02-26T18:37:53.700Z,2.80
2023-02-26T18:39:57.491Z,3.83
2023-02-26T18:42:03.619Z,3.13
2023-02-26T18:44:07.399Z,3.13
2023-02-26T18:46:13.699Z,5.32
2023-02-26T18:48:20.137Z,25.17
2023-02-26T18:50:25.207Z,5.75
2023-02-26T18:52:28.614Z,4.05
2023-02-26T18:54:32.724Z,4.70
2023-02-26T18:56:37.666Z,5.72
2023-02-26T18:58:43.232Z,5.70
2023-02-26T19:00:47.314Z,4.70
2023-02-26T19:02:51.101Z,3.92
2023-02-26T19:04:54.941Z,5.00
2023-02-26T19:06:58.712Z,5.80
2023-02-26T19:09:03.258Z,4.25
2023-02-26T19:11:06.972Z,5.00
2023-02-26T19:13:10.825Z,3.67
2023-02-26T19:15:15.924Z,3.42
2023-02-26T19:19:23.083Z,4.15
2023-02-26T19:21:28.382Z,3.33
2023-02-26T19:23:32.376Z,3.95
2023-02-26T19:25:36.576Z,4.47
2023-02-26T19:27:40.975Z,4.68
2023-02-26T19:29:45.281Z,3.55
2023-02-26T19:31:50.634Z,3.90
2023-02-26T19:33:54.698Z,3.78
2023-02-26T19:35:58.763Z,2.72
2023-02-26T19:38:02.567Z,3.50
2023-02-26T19:40:10.389Z,6.53
2023-02-26T19:42:14.640Z,7.55
2023-02-26T19:44:20.100Z,5.13
2023-02-26T19:46:24.451Z,5.10
2023-02-26T19:48:29.770Z,7.63
2023-02-26T19:50:33.476Z,5.32
2023-02-26T19:52:37.506Z,4.85
2023-02-26T19:54:41.192Z,3.13
2023-02-26T19:56:45.440Z,2.50
2023-02-26T20:02:58.475Z,3.30
2023-02-26T20:05:05.126Z,3.00
2023-02-26T20:07:09.531Z,3.47
2023-02-26T20:09:14.775Z,3.83
2023-02-26T20:11:18.485Z,2.60
2023-02-26T20:13:22.857Z,3.00
2023-02-26T20:15:27.551Z,3.65
2023-02-26T20:17:31.216Z,4.13
2023-02-26T20:19:34.985Z,3.80
2023-02-26T20:21:40.284Z,2.50
2023-02-26T20:23:44.454Z,3.90
2023-02-26T20:25:50.639Z,3.97
2023-02-26T20:27:54.713Z,4.68
2023-02-26T20:29:58.376Z,2.88
2023-02-26T20:32:02.325Z,2.60
2023-02-26T20:34:06.871Z,2.70
2023-02-26T20:36:11.608Z,3.03
2023-02-26T20:38:17.862Z,5.55
2023-02-26T20:40:22.672Z,7.57
2023-02-26T20:42:26.696Z,8.55
2023-02-26T20:44:30.668Z,5.65
2023-02-26T20:46:39.234Z,3.30
2023-02-26T20:48:44.457Z,2.90
2023-02-26T20:50:48.836Z,2.78
2023-02-26T20:52:52.483Z,4.85
2023-02-26T20:54:57.673Z,2.67
2023-02-26T20:59:04.795Z,4.00
2023-02-26T21:01:08.562Z,2.55
2023-02-26T21:03:13.509Z,3.15
2023-02-26T21:05:18.801Z,3.08
2023-02-26T21:07:23.316Z,4.10
2023-02-26T21:09:27.166Z,3.50
2023-02-26T21:11:36.874Z,3.35
2023-02-26T21:13:41.141Z,3.00
2023-02-26T21:15:45.010Z,3.15
2023-02-26T21:17:48.947Z,2.58
2023-02-26T21:19:53.366Z,2.67
2023-02-26T21:21:57.238Z,2.30
2023-02-26T21:24:01.042Z,2.58
2023-02-26T21:26:04.995Z,2.33
2023-02-26T21:28:10.194Z,3.20
2023-02-26T21:30:15.425Z,2.20
2023-02-26T21:32:19.438Z,2.47
2023-02-26T21:34:33.604Z,2.92
2023-02-26T21:36:37.732Z,2.35
2023-02-26T21:38:42.407Z,2.80
2023-02-26T21:40:46.288Z,3.28
2023-02-26T21:44:56.769Z,3.05
2023-02-26T21:47:00.598Z,2.28
2023-02-26T21:49:04.324Z,2.42
2023-02-26T21:51:08.717Z,2.35
2023-02-26T21:53:12.438Z,2.50
2023-02-26T21:55:17.126Z,2.58
2023-02-26T21:57:20.719Z,3.05
2023-02-26T21:59:24.882Z,2.60
2023-02-26T22:01:30.587Z,3.95
2023-02-26T22:03:34.428Z,5.28
2023-02-26T22:05:38.680Z,5.75
2023-02-26T22:07:42.648Z,9.75
2023-02-26T22:09:47.604Z,8.80
2023-02-26T22:11:51.214Z,7.68
2023-02-26T22:13:55.039Z,12.68
2023-02-26T22:15:58.822Z,10.40
2023-02-26T22:18:04.302Z,7.00
2023-02-26T22:20:10.076Z,6.65
2023-02-26T22:22:14.100Z,4.53
2023-02-26T22:24:18.063Z,3.22
2023-02-26T22:26:21.977Z,2.58
2023-02-26T22:28:25.819Z,2.83
2023-02-26T22:30:29.502Z,1.80
2023-02-26T22:32:33.290Z,2.20
2023-02-26T22:34:38.654Z,2.38
2023-02-26T22:36:42.471Z,2.47
2023-02-26T22:38:46.129Z,2.17
2023-02-26T22:40:49.988Z,2.08
2023-02-26T22:42:53.694Z,1.88
2023-02-26T22:44:57.611Z,2.38
2023-02-26T22:47:01.274Z,1.88
2023-02-26T22:49:05.062Z,1.27
2023-02-26T22:51:10.611Z,1.75
2023-02-26T22:53:14.115Z,1.50
2023-02-26T22:55:19.016Z,1.42
2023-02-26T22:57:22.972Z,1.40
2023-02-26T22:59:26.773Z,2.05
2023-02-26T23:01:30.746Z,1.60
2023-02-26T23:03:35.260Z,2.97
2023-02-26T23:05:39.391Z,2.10
2023-02-26T23:07:45.201Z,2.13
2023-02-26T23:09:48.925Z,1.60
2023-02-26T23:11:52.865Z,1.92
2023-02-26T23:13:56.488Z,2.10
2023-02-26T23:16:00.183Z,2.10
2023-02-26T23:18:03.800Z,1.85
2023-02-26T23:20:10.309Z,1.95
2023-02-26T23:22:13.802Z,1.30
2023-02-26T23:24:19.106Z,2.50
2023-02-26T23:26:22.622Z,2.42
2023-02-26T23:28:26.530Z,2.17
2023-02-26T23:30:30.284Z,1.40
2023-02-26T23:32:33.981Z,1.50
2023-02-26T23:34:37.708Z,1.60
2023-02-26T23:36:42.577Z,2.20
2023-02-26T23:38:46.100Z,1.90
2023-02-26T23:40:51.243Z,2.22
2023-02-26T23:42:54.963Z,2.05
2023-02-26T23:44:58.505Z,1.60
2023-02-26T23:47:02.248Z,1.88
2023-02-26T23:49:06.036Z,1.20
2023-02-26T23:51:10.509Z,1.73
2023-02-26T23:53:14.182Z,1.33
2023-02-26T23:55:17.994Z,1.70
2023-02-26T23:57:23.311Z,1.75
2023-02-26T23:59:26.951Z,2.10
